sensor_id;sensor_type;location;lat;lon;timestamp;temperature;humidity
67273;DHT22;54190;49.770;9.250;2023-07-09T00:00:15;19.80;99.90
67273;DHT22;54190;49.770;9.250;2023-07-09T00:02:41;19.80;99.90
67273;DHT22;54190;49.770;9.250;2023-07-09T00:05:11;19.80;99.90
67273;DHT22;54190;49.770;9.250;2023-07-09T00:07:38;19.70;99.90
67273;DHT22;54190;49.770;9.250;2023-07-09T00:10:13;19.70;99.90
67273;DHT22;54190;49.770;9.250;2023-07-09T00:12:39;19.70;99.90
67273;DHT22;54190;49.770;9.250;2023-07-09T00:15:05;19.70;99.90
67273;DHT22;54190;49.770;9.250;2023-07-09T00:17:35;19.60;99.90
67273;DHT22;54190;49.770;9.250;2023-07-09T00:20:01;19.60;99.90
67273;DHT22;54190;49.770;9.250;2023-07-09T00:22:30;19.50;99.90
67273;DHT22;54190;49.770;9.250;2023-07-09T00:24:55;19.50;99.90
67273;DHT22;54190;49.770;9.250;2023-07-09T00:27:24;19.50;99.90
67273;DHT22;54190;49.770;9.250;2023-07-09T00:29:51;19.40;99.90
67273;DHT22;54190;49.770;9.250;2023-07-09T00:32:20;19.30;99.90
67273;DHT22;54190;49.770;9.250;2023-07-09T00:34:47;19.20;99.90
67273;DHT22;54190;49.770;9.250;2023-07-09T00:37:19;19.20;99.90
67273;DHT22;54190;49.770;9.250;2023-07-09T00:39:46;19.20;99.90
67273;DHT22;54190;49.770;9.250;2023-07-09T00:42:21;19.20;99.90
67273;DHT22;54190;49.770;9.250;2023-07-09T00:44:54;19.10;99.90
67273;DHT22;54190;49.770;9.250;2023-07-09T00:50:29;19.10;99.90
67273;DHT22;54190;49.770;9.250;2023-07-09T00:53:19;19.10;99.90
67273;DHT22;54190;49.770;9.250;2023-07-09T00:55:51;19.00;99.90
67273;DHT22;54190;49.770;9.250;2023-07-09T00:58:20;19.00;99.90
67273;DHT22;54190;49.770;9.250;2023-07-09T01:00:50;18.90;99.90
67273;DHT22;54190;49.770;9.250;2023-07-09T01:03:39;18.90;99.90
67273;DHT22;54190;49.770;9.250;2023-07-09T01:06:08;18.90;99.90
67273;DHT22;54190;49.770;9.250;2023-07-09T01:08:37;18.80;99.90
67273;DHT22;54190;49.770;9.250;2023-07-09T01:11:18;18.80;99.90
67273;DHT22;54190;49.770;9.250;2023-07-09T01:13:52;18.70;99.90
67273;DHT22;54190;49.770;9.250;2023-07-09T01:16:19;18.70;99.90
67273;DHT22;54190;49.770;9.250;2023-07-09T01:18:50;18.60;99.90
67273;DHT22;54190;49.770;9.250;2023-07-09T01:21:16;18.60;99.90
67273;DHT22;54190;49.770;9.250;2023-07-09T01:23:47;18.50;99.90
67273;DHT22;54190;49.770;9.250;2023-07-09T01:26:24;18.50;99.90
67273;DHT22;54190;49.770;9.250;2023-07-09T01:28:51;18.50;99.90
67273;DHT22;54190;49.770;9.250;2023-07-09T01:31:17;18.50;99.90
67273;DHT22;54190;49.770;9.250;2023-07-09T01:33:44;18.50;99.90
67273;DHT22;54190;49.770;9.250;2023-07-09T01:36:16;18.50;99.90
67273;DHT22;54190;49.770;9.250;2023-07-09T01:38:42;18.40;99.90
67273;DHT22;54190;49.770;9.250;2023-07-09T01:41:08;18.30;99.90
67273;DHT22;54190;49.770;9.250;2023-07-09T01:43:40;18.30;99.90
67273;DHT22;54190;49.770;9.250;2023-07-09T01:46:10;18.30;99.90
67273;DHT22;54190;49.770;9.250;2023-07-09T01:48:38;18.40;99.90
67273;DHT22;54190;49.770;9.250;2023-07-09T01:51:14;18.40;99.90
67273;DHT22;54190;49.770;9.250;2023-07-09T01:53:43;18.40;99.90
67273;DHT22;54190;49.770;9.250;2023-07-09T01:56:10;18.30;99.90
67273;DHT22;54190;49.770;9.250;2023-07-09T01:58:36;18.30;99.90
67273;DHT22;54190;49.770;9.250;2023-07-09T02:01:07;18.30;99.90
67273;DHT22;54190;49.770;9.250;2023-07-09T02:03:34;18.30;99.90
67273;DHT22;54190;49.770;9.250;2023-07-09T02:05:59;18.20;99.90
67273;DHT22;54190;49.770;9.250;2023-07-09T02:08:28;18.30;99.90
67273;DHT22;54190;49.770;9.250;2023-07-09T02:10:54;18.20;99.90
67273;DHT22;54190;49.770;9.250;2023-07-09T02:13:20;18.20;99.90
67273;DHT22;54190;49.770;9.250;2023-07-09T02:15:45;18.20;99.90
67273;DHT22;54190;49.770;9.250;2023-07-09T02:18:14;18.20;99.90
67273;DHT22;54190;49.770;9.250;2023-07-09T02:20:40;18.10;99.90
67273;DHT22;54190;49.770;9.250;2023-07-09T02:23:07;18.10;99.90
67273;DHT22;54190;49.770;9.250;2023-07-09T02:25:32;18.10;99.90
67273;DHT22;54190;49.770;9.250;2023-07-09T02:27:58;18.10;99.90
67273;DHT22;54190;49.770;9.250;2023-07-09T02:30:24;18.10;99.90
67273;DHT22;54190;49.770;9.250;2023-07-09T02:32:50;18.10;99.90
67273;DHT22;54190;49.770;9.250;2023-07-09T02:35:16;18.10;99.90
67273;DHT22;54190;49.770;9.250;2023-07-09T02:37:42;18.00;99.90
67273;DHT22;54190;49.770;9.250;2023-07-09T02:40:08;18.00;99.90
67273;DHT22;54190;49.770;9.250;2023-07-09T02:42:35;18.00;99.90
67273;DHT22;54190;49.770;9.250;2023-07-09T02:45:02;17.90;99.90
67273;DHT22;54190;49.770;9.250;2023-07-09T02:47:30;17.90;99.90
67273;DHT22;54190;49.770;9.250;2023-07-09T02:49:57;17.80;99.90
67273;DHT22;54190;49.770;9.250;2023-07-09T02:52:23;17.80;99.90
67273;DHT22;54190;49.770;9.250;2023-07-09T02:54:48;17.80;99.90
67273;DHT22;54190;49.770;9.250;2023-07-09T02:57:14;17.80;99.90
67273;DHT22;54190;49.770;9.250;2023-07-09T02:59:40;17.80;99.90
67273;DHT22;54190;49.770;9.250;2023-07-09T03:02:05;17.80;99.90
67273;DHT22;54190;49.770;9.250;2023-07-09T03:04:31;17.80;99.90
67273;DHT22;54190;49.770;9.250;2023-07-09T03:06:57;17.80;99.90
67273;DHT22;54190;49.770;9.250;2023-07-09T03:09:25;17.70;99.90
67273;DHT22;54190;49.770;9.250;2023-07-09T03:11:51;17.70;99.90
67273;DHT22;54190;49.770;9.250;2023-07-09T03:14:17;17.60;99.90
67273;DHT22;54190;49.770;9.250;2023-07-09T03:16:42;17.70;99.90
67273;DHT22;54190;49.770;9.250;2023-07-09T03:19:08;17.60;99.90
67273;DHT22;54190;49.770;9.250;2023-07-09T03:21:34;17.50;99.90
67273;DHT22;54190;49.770;9.250;2023-07-09T03:24:00;17.50;99.90
67273;DHT22;54190;49.770;9.250;2023-07-09T03:26:26;17.50;99.90
67273;DHT22;54190;49.770;9.250;2023-07-09T03:28:53;17.50;99.90
67273;DHT22;54190;49.770;9.250;2023-07-09T03:31:20;17.50;99.90
67273;DHT22;54190;49.770;9.250;2023-07-09T03:33:47;17.50;99.90
67273;DHT22;54190;49.770;9.250;2023-07-09T03:36:13;17.50;99.90
67273;DHT22;54190;49.770;9.250;2023-07-09T03:38:39;17.40;99.90
67273;DHT22;54190;49.770;9.250;2023-07-09T03:41:05;17.40;99.90
67273;DHT22;54190;49.770;9.250;2023-07-09T03:43:30;17.40;99.90
67273;DHT22;54190;49.770;9.250;2023-07-09T03:45:56;17.40;99.90
67273;DHT22;54190;49.770;9.250;2023-07-09T03:48:22;17.40;99.90
67273;DHT22;54190;49.770;9.250;2023-07-09T03:50:48;17.40;99.90
67273;DHT22;54190;49.770;9.250;2023-07-09T03:53:14;17.40;99.90
67273;DHT22;54190;49.770;9.250;2023-07-09T03:55:41;17.30;99.90
67273;DHT22;54190;49.770;9.250;2023-07-09T03:58:06;17.30;99.90
67273;DHT22;54190;49.770;9.250;2023-07-09T04:00:32;17.30;99.90
67273;DHT22;54190;49.770;9.250;2023-07-09T04:02:58;17.30;99.90
67273;DHT22;54190;49.770;9.250;2023-07-09T04:05:25;17.30;99.90
67273;DHT22;54190;49.770;9.250;2023-07-09T04:07:51;17.30;99.90
67273;DHT22;54190;49.770;9.250;2023-07-09T04:10:17;17.30;99.90
67273;DHT22;54190;49.770;9.250;2023-07-09T04:12:43;17.30;99.90
67273;DHT22;54190;49.770;9.250;2023-07-09T04:15:09;17.30;99.90
67273;DHT22;54190;49.770;9.250;2023-07-09T04:17:35;17.20;99.90
67273;DHT22;54190;49.770;9.250;2023-07-09T04:20:02;17.20;99.90
67273;DHT22;54190;49.770;9.250;2023-07-09T04:22:31;17.30;99.90
67273;DHT22;54190;49.770;9.250;2023-07-09T04:24:57;17.30;99.90
67273;DHT22;54190;49.770;9.250;2023-07-09T04:27:23;17.30;99.90
67273;DHT22;54190;49.770;9.250;2023-07-09T04:29:52;17.40;99.90
67273;DHT22;54190;49.770;9.250;2023-07-09T04:32:19;17.40;99.90
67273;DHT22;54190;49.770;9.250;2023-07-09T04:34:44;17.40;99.90
67273;DHT22;54190;49.770;9.250;2023-07-09T04:37:11;17.40;99.90
67273;DHT22;54190;49.770;9.250;2023-07-09T04:39:42;17.40;99.90
67273;DHT22;54190;49.770;9.250;2023-07-09T04:42:12;17.50;99.90
67273;DHT22;54190;49.770;9.250;2023-07-09T04:44:39;17.50;99.90
67273;DHT22;54190;49.770;9.250;2023-07-09T04:47:05;17.50;99.90
67273;DHT22;54190;49.770;9.250;2023-07-09T04:49:31;17.60;99.90
67273;DHT22;54190;49.770;9.250;2023-07-09T04:51:56;17.60;99.90
67273;DHT22;54190;49.770;9.250;2023-07-09T04:54:25;17.70;99.90
67273;DHT22;54190;49.770;9.250;2023-07-09T04:56:50;17.80;99.90
67273;DHT22;54190;49.770;9.250;2023-07-09T04:59:16;17.80;99.90
67273;DHT22;54190;49.770;9.250;2023-07-09T05:01:42;17.90;99.90
67273;DHT22;54190;49.770;9.250;2023-07-09T05:04:07;17.90;99.90
67273;DHT22;54190;49.770;9.250;2023-07-09T05:06:34;18.00;99.90
67273;DHT22;54190;49.770;9.250;2023-07-09T05:09:00;18.00;99.90
67273;DHT22;54190;49.770;9.250;2023-07-09T05:11:26;18.10;99.90
67273;DHT22;54190;49.770;9.250;2023-07-09T05:13:52;18.20;99.90
67273;DHT22;54190;49.770;9.250;2023-07-09T05:16:17;18.20;99.90
67273;DHT22;54190;49.770;9.250;2023-07-09T05:18:45;18.30;99.90
67273;DHT22;54190;49.770;9.250;2023-07-09T05:21:10;18.30;99.90
67273;DHT22;54190;49.770;9.250;2023-07-09T05:23:36;18.40;99.90
67273;DHT22;54190;49.770;9.250;2023-07-09T05:26:03;18.40;99.90
67273;DHT22;54190;49.770;9.250;2023-07-09T05:28:30;18.40;99.90
67273;DHT22;54190;49.770;9.250;2023-07-09T05:30:57;18.50;99.90
67273;DHT22;54190;49.770;9.250;2023-07-09T05:33:22;18.50;99.90
67273;DHT22;54190;49.770;9.250;2023-07-09T05:35:48;18.50;99.90
67273;DHT22;54190;49.770;9.250;2023-07-09T05:38:14;18.60;99.90
67273;DHT22;54190;49.770;9.250;2023-07-09T05:40:42;18.60;99.90
67273;DHT22;54190;49.770;9.250;2023-07-09T05:43:08;18.70;99.90
67273;DHT22;54190;49.770;9.250;2023-07-09T05:45:34;18.70;99.90
67273;DHT22;54190;49.770;9.250;2023-07-09T05:48:00;18.70;99.90
67273;DHT22;54190;49.770;9.250;2023-07-09T05:50:27;18.80;99.90
67273;DHT22;54190;49.770;9.250;2023-07-09T05:52:53;18.80;99.90
67273;DHT22;54190;49.770;9.250;2023-07-09T05:55:19;18.80;99.90
67273;DHT22;54190;49.770;9.250;2023-07-09T05:57:44;18.90;99.90
67273;DHT22;54190;49.770;9.250;2023-07-09T06:00:11;19.00;99.90
67273;DHT22;54190;49.770;9.250;2023-07-09T06:02:40;19.00;99.90
67273;DHT22;54190;49.770;9.250;2023-07-09T06:05:06;19.10;99.90
67273;DHT22;54190;49.770;9.250;2023-07-09T06:07:35;19.10;99.90
67273;DHT22;54190;49.770;9.250;2023-07-09T06:10:00;19.20;99.90
67273;DHT22;54190;49.770;9.250;2023-07-09T06:12:26;19.20;99.90
67273;DHT22;54190;49.770;9.250;2023-07-09T06:14:52;19.30;99.90
67273;DHT22;54190;49.770;9.250;2023-07-09T06:17:17;19.30;99.90
67273;DHT22;54190;49.770;9.250;2023-07-09T06:19:43;19.40;99.90
67273;DHT22;54190;49.770;9.250;2023-07-09T06:22:09;19.40;99.90
67273;DHT22;54190;49.770;9.250;2023-07-09T06:24:34;19.50;99.90
67273;DHT22;54190;49.770;9.250;2023-07-09T06:27:00;19.70;99.90
67273;DHT22;54190;49.770;9.250;2023-07-09T06:29:26;19.70;99.90
67273;DHT22;54190;49.770;9.250;2023-07-09T06:31:51;19.80;99.90
67273;DHT22;54190;49.770;9.250;2023-07-09T06:34:17;19.90;99.90
67273;DHT22;54190;49.770;9.250;2023-07-09T06:36:43;20.00;99.90
67273;DHT22;54190;49.770;9.250;2023-07-09T06:39:08;20.10;99.90
67273;DHT22;54190;49.770;9.250;2023-07-09T06:41:35;20.20;99.90
67273;DHT22;54190;49.770;9.250;2023-07-09T06:44:06;20.30;99.90
67273;DHT22;54190;49.770;9.250;2023-07-09T06:46:32;20.40;99.90
67273;DHT22;54190;49.770;9.250;2023-07-09T06:48:57;20.50;99.90
67273;DHT22;54190;49.770;9.250;2023-07-09T06:51:23;20.60;99.90
67273;DHT22;54190;49.770;9.250;2023-07-09T06:53:49;20.80;99.90
67273;DHT22;54190;49.770;9.250;2023-07-09T06:56:17;20.90;99.90
67273;DHT22;54190;49.770;9.250;2023-07-09T06:58:42;21.10;99.90
67273;DHT22;54190;49.770;9.250;2023-07-09T07:01:08;21.20;99.90
67273;DHT22;54190;49.770;9.250;2023-07-09T07:03:36;21.40;99.90
67273;DHT22;54190;49.770;9.250;2023-07-09T07:06:02;21.60;99.90
67273;DHT22;54190;49.770;9.250;2023-07-09T07:08:28;21.80;99.90
67273;DHT22;54190;49.770;9.250;2023-07-09T07:10:56;21.90;99.90
67273;DHT22;54190;49.770;9.250;2023-07-09T07:13:29;22.00;99.90
67273;DHT22;54190;49.770;9.250;2023-07-09T07:15:55;22.10;99.90
67273;DHT22;54190;49.770;9.250;2023-07-09T07:18:21;22.20;99.90
67273;DHT22;54190;49.770;9.250;2023-07-09T07:20:47;22.30;99.90
67273;DHT22;54190;49.770;9.250;2023-07-09T07:23:12;22.50;99.90
67273;DHT22;54190;49.770;9.250;2023-07-09T07:25:38;22.70;99.90
67273;DHT22;54190;49.770;9.250;2023-07-09T07:28:04;22.90;99.90
67273;DHT22;54190;49.770;9.250;2023-07-09T07:30:29;23.10;99.90
67273;DHT22;54190;49.770;9.250;2023-07-09T07:32:55;23.40;99.90
67273;DHT22;54190;49.770;9.250;2023-07-09T07:35:21;23.70;99.90
67273;DHT22;54190;49.770;9.250;2023-07-09T07:37:47;24.00;99.90
67273;DHT22;54190;49.770;9.250;2023-07-09T07:40:12;24.20;99.90
67273;DHT22;54190;49.770;9.250;2023-07-09T07:42:38;24.40;99.90
67273;DHT22;54190;49.770;9.250;2023-07-09T07:45:04;24.60;99.90
67273;DHT22;54190;49.770;9.250;2023-07-09T07:47:31;24.80;99.40
67273;DHT22;54190;49.770;9.250;2023-07-09T07:49:57;25.00;99.20
67273;DHT22;54190;49.770;9.250;2023-07-09T07:52:23;25.10;99.30
67273;DHT22;54190;49.770;9.250;2023-07-09T07:54:49;25.30;99.00
67273;DHT22;54190;49.770;9.250;2023-07-09T07:57:14;25.50;99.10
67273;DHT22;54190;49.770;9.250;2023-07-09T07:59:40;25.80;98.20
67273;DHT22;54190;49.770;9.250;2023-07-09T08:02:10;26.00;97.80
67273;DHT22;54190;49.770;9.250;2023-07-09T08:04:36;26.30;97.70
67273;DHT22;54190;49.770;9.250;2023-07-09T08:07:02;26.40;97.30
67273;DHT22;54190;49.770;9.250;2023-07-09T08:09:28;26.60;97.50
67273;DHT22;54190;49.770;9.250;2023-07-09T08:11:53;26.70;97.00
67273;DHT22;54190;49.770;9.250;2023-07-09T08:14:19;26.90;96.80
67273;DHT22;54190;49.770;9.250;2023-07-09T08:16:47;27.20;95.40
67273;DHT22;54190;49.770;9.250;2023-07-09T08:19:13;27.50;95.60
67273;DHT22;54190;49.770;9.250;2023-07-09T08:21:38;27.80;94.10
67273;DHT22;54190;49.770;9.250;2023-07-09T08:24:04;28.10;94.00
67273;DHT22;54190;49.770;9.250;2023-07-09T08:26:30;28.30;93.60
67273;DHT22;54190;49.770;9.250;2023-07-09T08:28:56;28.40;93.20
67273;DHT22;54190;49.770;9.250;2023-07-09T08:31:22;28.60;93.10
67273;DHT22;54190;49.770;9.250;2023-07-09T08:33:48;28.80;91.60
67273;DHT22;54190;49.770;9.250;2023-07-09T08:36:13;29.00;92.30
67273;DHT22;54190;49.770;9.250;2023-07-09T08:38:39;29.10;90.60
67273;DHT22;54190;49.770;9.250;2023-07-09T08:41:08;29.20;90.30
67273;DHT22;54190;49.770;9.250;2023-07-09T08:52:13;29.70;85.50
67273;DHT22;54190;49.770;9.250;2023-07-09T08:54:41;29.80;84.00
67273;DHT22;54190;49.770;9.250;2023-07-09T08:57:34;30.00;81.40
67273;DHT22;54190;49.770;9.250;2023-07-09T09:00:22;30.10;80.30
67273;DHT22;54190;49.770;9.250;2023-07-09T09:02:59;30.20;80.70
67273;DHT22;54190;49.770;9.250;2023-07-09T09:05:26;30.40;77.70
67273;DHT22;54190;49.770;9.250;2023-07-09T09:13:31;30.90;76.60
67273;DHT22;54190;49.770;9.250;2023-07-09T09:16:01;31.00;76.10
67273;DHT22;54190;49.770;9.250;2023-07-09T09:18:32;31.10;75.20
67273;DHT22;54190;49.770;9.250;2023-07-09T09:21:07;31.30;76.60
67273;DHT22;54190;49.770;9.250;2023-07-09T09:23:40;31.40;76.00
67273;DHT22;54190;49.770;9.250;2023-07-09T09:26:18;31.50;68.90
67273;DHT22;54190;49.770;9.250;2023-07-09T09:28:44;31.70;71.70
67273;DHT22;54190;49.770;9.250;2023-07-09T09:31:11;31.80;72.30
67273;DHT22;54190;49.770;9.250;2023-07-09T09:33:45;31.90;68.20
67273;DHT22;54190;49.770;9.250;2023-07-09T09:36:20;32.10;67.10
67273;DHT22;54190;49.770;9.250;2023-07-09T09:38:46;32.10;64.70
67273;DHT22;54190;49.770;9.250;2023-07-09T09:41:14;32.20;65.00
67273;DHT22;54190;49.770;9.250;2023-07-09T09:43:42;32.30;66.60
67273;DHT22;54190;49.770;9.250;2023-07-09T09:46:09;32.30;64.50
67273;DHT22;54190;49.770;9.250;2023-07-09T09:48:45;32.40;63.30
67273;DHT22;54190;49.770;9.250;2023-07-09T09:51:11;32.60;64.80
67273;DHT22;54190;49.770;9.250;2023-07-09T09:53:39;32.80;60.90
67273;DHT22;54190;49.770;9.250;2023-07-09T09:56:07;32.90;59.30
67273;DHT22;54190;49.770;9.250;2023-07-09T09:58:40;33.00;61.30
67273;DHT22;54190;49.770;9.250;2023-07-09T10:01:16;33.00;57.30
67273;DHT22;54190;49.770;9.250;2023-07-09T10:03:42;33.20;58.40
67273;DHT22;54190;49.770;9.250;2023-07-09T10:06:21;33.30;57.20
67273;DHT22;54190;49.770;9.250;2023-07-09T10:09:02;33.40;57.70
67273;DHT22;54190;49.770;9.250;2023-07-09T10:11:49;33.50;55.80
67273;DHT22;54190;49.770;9.250;2023-07-09T10:14:35;33.50;55.80
67273;DHT22;54190;49.770;9.250;2023-07-09T10:20:18;33.80;54.40
67273;DHT22;54190;49.770;9.250;2023-07-09T10:28:29;34.00;54.00
67273;DHT22;54190;49.770;9.250;2023-07-09T10:31:08;34.10;51.50
67273;DHT22;54190;49.770;9.250;2023-07-09T10:34:14;34.10;48.40
67273;DHT22;54190;49.770;9.250;2023-07-09T10:39:40;34.20;45.50
67273;DHT22;54190;49.770;9.250;2023-07-09T10:44:57;33.90;48.10
67273;DHT22;54190;49.770;9.250;2023-07-09T10:47:36;33.90;51.10
67273;DHT22;54190;49.770;9.250;2023-07-09T10:50:05;34.10;50.90
67273;DHT22;54190;49.770;9.250;2023-07-09T10:52:36;34.20;48.90
67273;DHT22;54190;49.770;9.250;2023-07-09T10:55:12;34.20;49.90
67273;DHT22;54190;49.770;9.250;2023-07-09T10:57:56;34.00;49.10
67273;DHT22;54190;49.770;9.250;2023-07-09T11:00:36;33.80;51.20
67273;DHT22;54190;49.770;9.250;2023-07-09T11:03:11;33.80;50.50
67273;DHT22;54190;49.770;9.250;2023-07-09T11:05:39;34.00;50.70
67273;DHT22;54190;49.770;9.250;2023-07-09T11:08:24;34.20;51.10
67273;DHT22;54190;49.770;9.250;2023-07-09T11:10:56;34.40;50.60
67273;DHT22;54190;49.770;9.250;2023-07-09T11:13:38;34.60;50.00
67273;DHT22;54190;49.770;9.250;2023-07-09T11:16:06;34.70;48.30
67273;DHT22;54190;49.770;9.250;2023-07-09T11:18:35;34.80;46.80
67273;DHT22;54190;49.770;9.250;2023-07-09T11:21:07;35.00;47.80
67273;DHT22;54190;49.770;9.250;2023-07-09T11:23:44;35.00;47.20
67273;DHT22;54190;49.770;9.250;2023-07-09T11:26:26;35.20;48.00
67273;DHT22;54190;49.770;9.250;2023-07-09T11:31:40;35.40;48.00
67273;DHT22;54190;49.770;9.250;2023-07-09T11:36:51;35.50;47.70
67273;DHT22;54190;49.770;9.250;2023-07-09T11:39:42;35.60;46.10
67273;DHT22;54190;49.770;9.250;2023-07-09T11:42:28;35.70;47.50
67273;DHT22;54190;49.770;9.250;2023-07-09T11:45:08;35.70;45.30
67273;DHT22;54190;49.770;9.250;2023-07-09T11:47:40;35.50;45.40
67273;DHT22;54190;49.770;9.250;2023-07-09T11:50:28;35.30;44.70
67273;DHT22;54190;49.770;9.250;2023-07-09T11:53:14;35.20;46.70
67273;DHT22;54190;49.770;9.250;2023-07-09T11:55:46;35.40;46.30
67273;DHT22;54190;49.770;9.250;2023-07-09T11:58:16;35.60;44.10
67273;DHT22;54190;49.770;9.250;2023-07-09T12:00:54;35.60;44.80
67273;DHT22;54190;49.770;9.250;2023-07-09T12:03:30;35.80;44.30
67273;DHT22;54190;49.770;9.250;2023-07-09T12:06:07;35.80;42.80
67273;DHT22;54190;49.770;9.250;2023-07-09T12:08:41;35.90;44.20
67273;DHT22;54190;49.770;9.250;2023-07-09T12:11:31;35.90;45.20
67273;DHT22;54190;49.770;9.250;2023-07-09T12:14:02;36.00;45.00
67273;DHT22;54190;49.770;9.250;2023-07-09T12:16:43;36.10;42.40
67273;DHT22;54190;49.770;9.250;2023-07-09T12:19:14;36.20;43.60
67273;DHT22;54190;49.770;9.250;2023-07-09T12:21:43;36.10;41.50
67273;DHT22;54190;49.770;9.250;2023-07-09T12:24:27;36.00;40.30
67273;DHT22;54190;49.770;9.250;2023-07-09T12:27:02;35.50;40.70
67273;DHT22;54190;49.770;9.250;2023-07-09T12:29:30;35.00;42.40
67273;DHT22;54190;49.770;9.250;2023-07-09T12:31:57;34.90;42.90
67273;DHT22;54190;49.770;9.250;2023-07-09T12:34:24;34.80;45.60
67273;DHT22;54190;49.770;9.250;2023-07-09T12:36:52;34.80;45.30
67273;DHT22;54190;49.770;9.250;2023-07-09T12:39:23;35.00;45.00
67273;DHT22;54190;49.770;9.250;2023-07-09T12:41:49;35.20;43.40
67273;DHT22;54190;49.770;9.250;2023-07-09T12:44:20;35.30;43.10
67273;DHT22;54190;49.770;9.250;2023-07-09T12:46:48;35.50;44.20
67273;DHT22;54190;49.770;9.250;2023-07-09T12:49:38;35.70;42.60
67273;DHT22;54190;49.770;9.250;2023-07-09T12:52:14;35.80;42.60
67273;DHT22;54190;49.770;9.250;2023-07-09T12:54:41;35.90;42.30
67273;DHT22;54190;49.770;9.250;2023-07-09T12:57:16;36.00;43.30
67273;DHT22;54190;49.770;9.250;2023-07-09T12:59:42;36.10;41.10
67273;DHT22;54190;49.770;9.250;2023-07-09T13:04:48;36.20;40.10
67273;DHT22;54190;49.770;9.250;2023-07-09T13:09:53;36.40;39.00
67273;DHT22;54190;49.770;9.250;2023-07-09T13:12:20;36.50;39.70
67273;DHT22;54190;49.770;9.250;2023-07-09T13:14:53;36.60;39.70
67273;DHT22;54190;49.770;9.250;2023-07-09T13:17:19;36.60;37.60
67273;DHT22;54190;49.770;9.250;2023-07-09T13:19:45;36.80;39.50
67273;DHT22;54190;49.770;9.250;2023-07-09T13:22:16;36.90;37.90
67273;DHT22;54190;49.770;9.250;2023-07-09T13:24:42;37.00;38.60
67273;DHT22;54190;49.770;9.250;2023-07-09T13:27:15;37.00;38.00
67273;DHT22;54190;49.770;9.250;2023-07-09T13:29:41;37.10;37.40
67273;DHT22;54190;49.770;9.250;2023-07-09T13:32:11;37.30;38.60
67273;DHT22;54190;49.770;9.250;2023-07-09T13:34:37;37.40;38.00
67273;DHT22;54190;49.770;9.250;2023-07-09T13:37:05;37.60;39.10
67273;DHT22;54190;49.770;9.250;2023-07-09T13:39:34;37.70;37.90
67273;DHT22;54190;49.770;9.250;2023-07-09T13:42:00;37.60;36.70
67273;DHT22;54190;49.770;9.250;2023-07-09T13:44:28;37.60;38.00
67273;DHT22;54190;49.770;9.250;2023-07-09T13:46:55;37.60;38.40
67273;DHT22;54190;49.770;9.250;2023-07-09T13:49:24;37.70;38.90
67273;DHT22;54190;49.770;9.250;2023-07-09T13:51:52;37.80;36.70
67273;DHT22;54190;49.770;9.250;2023-07-09T13:54:23;37.90;37.30
67273;DHT22;54190;49.770;9.250;2023-07-09T13:56:49;37.90;36.30
67273;DHT22;54190;49.770;9.250;2023-07-09T13:59:21;38.00;35.90
67273;DHT22;54190;49.770;9.250;2023-07-09T14:01:49;38.00;35.30
67273;DHT22;54190;49.770;9.250;2023-07-09T14:04:17;37.90;35.90
67273;DHT22;54190;49.770;9.250;2023-07-09T14:06:43;38.00;34.10
67273;DHT22;54190;49.770;9.250;2023-07-09T14:09:12;37.90;36.40
67273;DHT22;54190;49.770;9.250;2023-07-09T14:11:42;37.80;33.00
67273;DHT22;54190;49.770;9.250;2023-07-09T14:14:18;37.70;35.50
67273;DHT22;54190;49.770;9.250;2023-07-09T14:16:45;37.60;35.50
67273;DHT22;54190;49.770;9.250;2023-07-09T14:19:13;37.60;36.90
67273;DHT22;54190;49.770;9.250;2023-07-09T14:21:40;37.60;33.60
67273;DHT22;54190;49.770;9.250;2023-07-09T14:26:42;37.60;32.40
67273;DHT22;54190;49.770;9.250;2023-07-09T14:29:08;37.60;35.10
67273;DHT22;54190;49.770;9.250;2023-07-09T14:31:35;37.70;34.00
67273;DHT22;54190;49.770;9.250;2023-07-09T14:34:20;37.60;33.00
67273;DHT22;54190;49.770;9.250;2023-07-09T14:36:47;37.70;33.70
67273;DHT22;54190;49.770;9.250;2023-07-09T14:39:13;37.90;34.70
67273;DHT22;54190;49.770;9.250;2023-07-09T14:41:38;38.10;34.20
67273;DHT22;54190;49.770;9.250;2023-07-09T14:44:28;38.10;33.10
67273;DHT22;54190;49.770;9.250;2023-07-09T14:46:58;38.20;33.60
67273;DHT22;54190;49.770;9.250;2023-07-09T14:49:25;38.30;33.80
67273;DHT22;54190;49.770;9.250;2023-07-09T14:51:51;38.30;32.80
67273;DHT22;54190;49.770;9.250;2023-07-09T14:54:21;38.30;32.10
67273;DHT22;54190;49.770;9.250;2023-07-09T14:56:48;38.30;32.30
67273;DHT22;54190;49.770;9.250;2023-07-09T14:59:14;38.20;32.70
67273;DHT22;54190;49.770;9.250;2023-07-09T15:01:40;38.10;32.40
67273;DHT22;54190;49.770;9.250;2023-07-09T15:06:51;38.20;32.40
67273;DHT22;54190;49.770;9.250;2023-07-09T15:09:22;38.10;32.00
67273;DHT22;54190;49.770;9.250;2023-07-09T15:11:53;38.00;31.50
67273;DHT22;54190;49.770;9.250;2023-07-09T15:14:19;37.90;32.30
67273;DHT22;54190;49.770;9.250;2023-07-09T15:16:47;37.90;33.20
67273;DHT22;54190;49.770;9.250;2023-07-09T15:19:17;37.90;32.60
67273;DHT22;54190;49.770;9.250;2023-07-09T15:21:43;37.90;33.10
67273;DHT22;54190;49.770;9.250;2023-07-09T15:24:26;37.80;32.30
67273;DHT22;54190;49.770;9.250;2023-07-09T15:26:54;37.70;32.40
67273;DHT22;54190;49.770;9.250;2023-07-09T15:29:21;37.70;33.80
67273;DHT22;54190;49.770;9.250;2023-07-09T15:31:48;37.50;33.00
67273;DHT22;54190;49.770;9.250;2023-07-09T15:34:14;37.50;33.80
67273;DHT22;54190;49.770;9.250;2023-07-09T15:36:45;37.40;33.90
67273;DHT22;54190;49.770;9.250;2023-07-09T15:39:12;37.40;32.50
67273;DHT22;54190;49.770;9.250;2023-07-09T15:41:38;37.40;33.60
67273;DHT22;54190;49.770;9.250;2023-07-09T15:44:04;37.20;32.90
67273;DHT22;54190;49.770;9.250;2023-07-09T15:46:30;37.10;33.30
67273;DHT22;54190;49.770;9.250;2023-07-09T15:48:56;37.10;33.30
67273;DHT22;54190;49.770;9.250;2023-07-09T15:51:22;37.00;32.60
67273;DHT22;54190;49.770;9.250;2023-07-09T15:53:47;37.00;33.70
67273;DHT22;54190;49.770;9.250;2023-07-09T15:56:29;37.00;33.60
67273;DHT22;54190;49.770;9.250;2023-07-09T15:58:56;36.90;33.70
67273;DHT22;54190;49.770;9.250;2023-07-09T16:01:23;36.80;33.70
67273;DHT22;54190;49.770;9.250;2023-07-09T16:03:57;36.70;32.40
67273;DHT22;54190;49.770;9.250;2023-07-09T16:06:23;36.50;31.60
67273;DHT22;54190;49.770;9.250;2023-07-09T16:08:49;36.50;33.10
67273;DHT22;54190;49.770;9.250;2023-07-09T16:11:22;36.30;32.90
67273;DHT22;54190;49.770;9.250;2023-07-09T16:13:49;36.20;32.40
67273;DHT22;54190;49.770;9.250;2023-07-09T16:16:16;36.10;33.10
67273;DHT22;54190;49.770;9.250;2023-07-09T16:18:42;36.00;33.20
67273;DHT22;54190;49.770;9.250;2023-07-09T16:21:24;35.90;33.50
67273;DHT22;54190;49.770;9.250;2023-07-09T16:23:51;35.80;33.00
67273;DHT22;54190;49.770;9.250;2023-07-09T16:26:17;35.80;33.70
67273;DHT22;54190;49.770;9.250;2023-07-09T16:28:43;35.70;33.80